Time;durP1;ratioP1;P1;durP2;ratioP2;P2;SDS_P1;SDS_P2;PMS_P1;PMS_P2;Temp;Humidity;BMP_temperature;BMP_pressure;BME280_temperature;BME280_humidity;BME280_pressure;Samples;Min_cycle;Max_cycle;Signal;HPM_P1;HPM_P2
2024/02/14 00:01:22;;;;;;;9.45;7.30;;;;;;;6.39;67.34;94309.81;4237276;27;20043;-66
2024/02/14 00:03:24;;;;;;;8.20;7.40;;;;;;;6.35;67.16;94304.91;4225449;28;20079;-68
2024/02/14 00:05:26;;;;;;;7.93;7.13;;;;;;;6.29;67.34;94304.66;4208122;28;20052;-70
2024/02/14 00:07:28;;;;;;;9.00;8.10;;;;;;;6.28;67.67;94318.63;4215943;28;20060;-69
2024/02/14 00:09:30;;;;;;;9.10;8.15;;;;;;;6.28;67.59;94314.25;4237885;27;20167;-68
2024/02/14 00:11:32;;;;;;;9.00;7.95;;;;;;;6.29;67.58;94315.06;4244311;27;20458;-69
2024/02/14 00:13:34;;;;;;;8.48;7.45;;;;;;;6.31;67.66;94319.16;4238569;27;20130;-68
2024/02/14 00:15:37;;;;;;;9.75;7.18;;;;;;;6.37;67.61;94320.38;4242024;27;20047;-70
2024/02/14 00:17:39;;;;;;;8.70;7.80;;;;;;;6.40;67.57;94320.09;4225230;27;20105;-66
2024/02/14 00:19:41;;;;;;;9.38;8.40;;;;;;;6.39;67.40;94331.47;4238140;27;20424;-69
2024/02/14 00:21:42;;;;;;;9.30;7.63;;;;;;;6.38;67.83;94326.41;4235001;27;20058;-68
2024/02/14 00:23:44;;;;;;;8.48;7.68;;;;;;;6.39;67.59;94331.47;4234920;27;20338;-69
2024/02/14 00:25:46;;;;;;;8.93;8.05;;;;;;;6.46;67.12;94331.72;4238417;27;20430;-66
2024/02/14 00:27:49;;;;;;;9.80;8.80;;;;;;;6.49;67.17;94334.84;4239514;27;20058;-68
2024/02/14 00:29:51;;;;;;;9.13;7.90;;;;;;;6.49;66.89;94337.44;4242045;27;20088;-69
2024/02/14 00:31:53;;;;;;;8.77;7.40;;;;;;;6.41;67.29;94332.16;4241289;27;20050;-70
2024/02/14 00:33:55;;;;;;;8.95;7.78;;;;;;;6.32;67.30;94339.03;4240934;27;20043;-68
2024/02/14 00:35:58;;;;;;;8.55;7.65;;;;;;;6.41;67.63;94339.97;4243978;27;20395;-68
2024/02/14 00:37:59;;;;;;;8.80;7.85;;;;;;;6.51;67.61;94338.13;4238881;27;20217;-67
2024/02/14 00:40:02;;;;;;;9.25;8.27;;;;;;;6.55;67.18;94343.88;4241639;27;20452;-69
2024/02/14 00:42:04;;;;;;;9.07;8.18;;;;;;;6.55;66.93;94344.69;4236784;27;20536;-66
2024/02/14 00:44:06;;;;;;;10.35;7.40;;;;;;;6.56;66.88;94340.31;4237939;27;20132;-68
2024/02/14 00:46:08;;;;;;;10.73;8.63;;;;;;;6.60;66.55;94336.44;4243526;27;20092;-68
2024/02/14 00:48:10;;;;;;;10.02;7.93;;;;;;;6.62;67.01;94338.91;4220527;28;20047;-68
2024/02/14 00:50:13;;;;;;;10.07;7.95;;;;;;;6.63;66.60;94340.56;4238808;27;20100;-67
2024/02/14 00:52:16;;;;;;;8.52;7.68;;;;;;;6.72;66.75;94331.88;4213739;28;20357;-66
2024/02/14 00:54:19;;;;;;;8.98;8.07;;;;;;;6.73;66.18;94334.34;4230746;27;20120;-68
2024/02/14 00:56:23;;;;;;;8.70;7.78;;;;;;;6.71;66.64;94340.63;4241612;27;20054;-69
2024/02/14 00:58:25;;;;;;;9.20;7.70;;;;;;;6.62;67.05;94336.28;4224193;28;20131;-70
2024/02/14 01:00:27;;;;;;;8.35;7.55;;;;;;;6.61;66.57;94337.28;4238872;27;20043;-67
2024/02/14 01:02:29;;;;;;;8.68;7.80;;;;;;;6.70;66.63;94342.41;4242966;27;20051;-69
2024/02/14 01:04:32;;;;;;;9.35;8.45;;;;;;;6.71;66.54;94336.28;4236253;27;20074;-68
2024/02/14 01:06:34;;;;;;;9.15;8.25;;;;;;;6.82;66.22;94335.25;4240589;27;20043;-68
2024/02/14 01:08:36;;;;;;;9.48;8.45;;;;;;;6.76;66.01;94343.63;4238336;27;20102;-67
2024/02/14 01:10:38;;;;;;;9.98;8.93;;;;;;;6.82;65.90;94337.84;4238966;27;20058;-67
2024/02/14 01:12:40;;;;;;;9.57;8.63;;;;;;;6.76;65.88;94339.25;4224278;28;20184;-67
2024/02/14 01:14:42;;;;;;;9.60;8.60;;;;;;;6.65;66.53;94346.44;4228729;27;20165;-67
2024/02/14 01:16:45;;;;;;;9.70;8.73;;;;;;;6.67;66.66;94339.31;4235581;27;20051;-68
2024/02/14 01:18:47;;;;;;;9.55;8.65;;;;;;;6.59;66.66;94340.00;4243709;27;20662;-68
2024/02/14 01:20:49;;;;;;;9.48;8.48;;;;;;;6.66;66.39;94340.25;4242504;27;20055;-68
2024/02/14 01:22:51;;;;;;;10.05;9.05;;;;;;;6.67;66.44;94336.72;4241490;27;20122;-68
2024/02/14 01:24:54;;;;;;;9.10;8.18;;;;;;;6.63;66.40;94343.16;4243780;27;20453;-68
2024/02/14 01:26:56;;;;;;;9.68;8.63;;;;;;;6.65;66.27;94329.03;4243283;27;20059;-67
2024/02/14 01:29:00;;;;;;;10.50;9.50;;;;;;;6.69;65.89;94338.19;4242614;27;20047;-68
2024/02/14 01:31:02;;;;;;;10.13;9.13;;;;;;;6.74;65.78;94337.75;4243574;27;20043;-69
2024/02/14 01:33:04;;;;;;;10.60;8.75;;;;;;;6.74;65.41;94332.56;4244184;27;20431;-67
2024/02/14 01:35:07;;;;;;;10.10;9.02;;;;;;;6.69;65.82;94332.16;4243583;27;20057;-68
2024/02/14 01:37:09;;;;;;;9.75;8.45;;;;;;;6.58;66.46;94327.94;4240944;27;20803;-67
2024/02/14 01:39:11;;;;;;;9.93;8.93;;;;;;;6.57;66.41;94331.53;4242656;27;20135;-67
2024/02/14 01:41:14;;;;;;;10.40;9.30;;;;;;;6.52;66.05;94337.16;4225682;28;20043;-67
2024/02/14 01:43:16;;;;;;;11.07;9.98;;;;;;;6.57;66.32;94339.34;4243476;27;20043;-68
2024/02/14 01:45:18;;;;;;;10.27;9.20;;;;;;;6.60;66.40;94333.00;4243778;27;20497;-68
2024/02/14 01:47:20;;;;;;;11.77;9.52;;;;;;;6.57;66.21;94332.34;4239257;27;20047;-67
2024/02/14 01:49:22;;;;;;;11.30;9.88;;;;;;;6.57;65.67;94342.75;4218560;28;20074;-68
2024/02/14 01:51:24;;;;;;;10.55;9.05;;;;;;;6.56;66.17;94348.94;4235723;27;20134;-67
2024/02/14 01:53:29;;;;;;;11.02;9.85;;;;;;;6.61;65.96;94343.28;4231226;27;20052;-68
2024/02/14 01:55:33;;;;;;;10.82;9.65;;;;;;;6.65;65.86;94341.22;4242094;27;20138;-69
2024/02/14 01:57:35;;;;;;;12.05;10.10;;;;;;;6.51;66.28;94338.13;4242419;27;20051;-68
2024/02/14 01:59:36;;;;;;;11.00;9.38;;;;;;;6.55;66.43;94336.06;4243410;27;20133;-69
2024/02/14 02:01:38;;;;;;;13.02;10.07;;;;;;;6.66;66.03;94337.66;4235441;27;20059;-68
2024/02/14 02:03:41;;;;;;;9.80;8.80;;;;;;;6.63;66.26;94340.56;4242824;27;20170;-69
2024/02/14 02:05:43;;;;;;;10.60;9.50;;;;;;;6.50;66.43;94343.47;4242862;27;21938;-69
2024/02/14 02:07:48;;;;;;;11.85;9.45;;;;;;;6.53;66.38;94344.00;4224892;28;20086;-68
2024/02/14 02:09:50;;;;;;;10.52;9.52;;;;;;;6.50;66.13;94340.88;4231476;27;20050;-68
2024/02/14 02:12:00;;;;;;;11.20;9.88;;;;;;;6.46;66.23;94329.13;4241109;27;20075;-69
2024/02/14 02:14:03;;;;;;;11.07;9.82;;;;;;;6.50;66.03;94336.50;4217963;28;20067;-66
2024/02/14 02:16:06;;;;;;;11.40;8.70;;;;;;;6.53;65.67;94338.78;4232823;27;20045;-68
2024/02/14 02:18:08;;;;;;;10.20;9.20;;;;;;;6.50;65.87;94349.50;4235239;27;20450;-67
2024/02/14 02:20:11;;;;;;;10.18;9.18;;;;;;;6.41;65.65;94350.38;4242766;27;20130;-68
2024/02/14 02:22:13;;;;;;;11.50;10.25;;;;;;;6.41;66.09;94349.53;4215378;28;20448;-68
2024/02/14 02:24:15;;;;;;;10.75;9.20;;;;;;;6.51;65.83;94342.50;4238594;27;20427;-68
2024/02/14 02:26:17;;;;;;;10.13;9.00;;;;;;;6.49;65.53;94339.22;4242049;27;20368;-69
2024/02/14 02:28:19;;;;;;;10.38;9.27;;;;;;;6.47;65.92;94354.97;4240254;27;20088;-69
2024/02/14 02:30:20;;;;;;;10.60;9.40;;;;;;;6.54;65.48;94353.47;4243054;27;20576;-69
2024/02/14 02:32:22;;;;;;;10.77;9.27;;;;;;;6.48;65.57;94355.81;4242619;27;20051;-66
2024/02/14 02:34:24;;;;;;;11.13;9.65;;;;;;;6.50;65.40;94353.91;4230704;28;20070;-69
2024/02/14 02:36:29;;;;;;;10.45;8.70;;;;;;;6.64;65.16;94348.19;4240975;27;21006;-68
2024/02/14 02:38:31;;;;;;;12.20;9.52;;;;;;;6.54;65.20;94358.66;4242565;27;20078;-67
2024/02/14 02:40:33;;;;;;;10.43;9.13;;;;;;;6.66;64.89;94355.88;4237960;27;20058;-68
2024/02/14 02:42:35;;;;;;;10.20;9.20;;;;;;;6.63;64.75;94361.38;4237612;27;20144;-68
2024/02/14 02:44:39;;;;;;;13.82;9.45;;;;;;;6.52;64.58;94368.41;4240822;28;20489;-67
2024/02/14 02:46:40;;;;;;;12.35;9.57;;;;;;;6.56;65.19;94367.16;4238930;28;20053;-68
2024/02/14 02:48:42;;;;;;;11.38;10.00;;;;;;;6.55;65.19;94369.88;4240290;28;20051;-68
2024/02/14 02:50:49;;;;;;;10.68;9.68;;;;;;;6.57;64.51;94371.38;4239569;28;20548;-67
2024/02/14 02:52:51;;;;;;;11.88;9.48;;;;;;;6.53;64.92;94383.03;4243323;28;20051;-66
2024/02/14 02:54:53;;;;;;;10.80;9.00;;;;;;;6.49;64.91;94380.84;4232283;28;20449;-67
2024/02/14 02:56:55;;;;;;;10.80;9.70;;;;;;;6.55;64.80;94375.91;4237621;28;20052;-69
2024/02/14 02:58:57;;;;;;;10.30;9.25;;;;;;;6.49;64.26;94380.84;4234921;28;20088;-68
2024/02/14 03:00:59;;;;;;;10.50;9.43;;;;;;;6.43;64.32;94381.41;4222324;28;20148;-68
2024/02/14 03:03:02;;;;;;;11.25;10.18;;;;;;;6.49;64.74;94386.88;4242494;28;20131;-68
2024/02/14 03:05:06;;;;;;;10.57;9.48;;;;;;;6.48;64.69;94387.84;4220302;28;20044;-67
2024/02/14 03:07:08;;;;;;;10.70;9.40;;;;;;;6.42;64.74;94392.81;4242340;28;20047;-68
2024/02/14 03:09:12;;;;;;;10.57;9.43;;;;;;;6.39;64.53;94395.66;4241452;28;20051;-66
2024/02/14 03:11:15;;;;;;;11.05;9.85;;;;;;;6.37;64.52;94388.03;4243270;28;20372;-69
2024/02/14 03:13:17;;;;;;;11.82;9.52;;;;;;;6.36;64.81;94392.38;4224076;28;20055;-67
2024/02/14 03:15:19;;;;;;;11.00;9.77;;;;;;;6.40;64.67;94395.53;4240550;28;20103;-66
2024/02/14 03:17:21;;;;;;;11.38;10.27;;;;;;;6.37;64.89;94398.44;4236875;28;20073;-67
2024/02/14 03:19:23;;;;;;;10.65;9.23;;;;;;;6.40;64.48;94390.34;4220411;28;20172;-66
2024/02/14 03:21:25;;;;;;;10.43;9.30;;;;;;;6.30;64.54;94397.34;4237026;28;20408;-67
2024/02/14 03:23:27;;;;;;;11.95;10.63;;;;;;;6.35;65.07;94401.16;4210548;28;20063;-67
2024/02/14 03:25:30;;;;;;;11.85;10.15;;;;;;;6.34;64.76;94399.50;4236600;28;20422;-68
2024/02/14 03:27:32;;;;;;;10.70;9.50;;;;;;;6.45;64.47;94411.53;4223854;28;20406;-68
2024/02/14 03:29:35;;;;;;;11.40;10.20;;;;;;;6.48;64.19;94413.88;4236155;28;20043;-68
2024/02/14 03:31:37;;;;;;;10.65;9.55;;;;;;;6.42;63.91;94411.84;4241381;28;20047;-68
2024/02/14 03:33:39;;;;;;;11.13;10.02;;;;;;;6.53;64.06;94424.66;4242114;28;20047;-69
2024/02/14 03:35:42;;;;;;;11.45;10.25;;;;;;;6.55;63.96;94422.75;4241818;28;20047;-68
2024/02/14 03:37:48;;;;;;;11.77;10.57;;;;;;;6.40;64.37;94431.97;4242115;28;20050;-67
2024/02/14 03:39:50;;;;;;;10.35;9.20;;;;;;;6.35;64.15;94432.38;4220813;28;20043;-68
2024/02/14 03:41:54;;;;;;;11.80;10.18;;;;;;;6.39;64.02;94438.16;4241329;28;20051;-67
2024/02/14 03:44:00;;;;;;;11.27;10.07;;;;;;;6.49;63.55;94430.31;4240774;28;20474;-69
2024/02/14 03:46:02;;;;;;;13.68;9.77;;;;;;;6.48;63.73;94432.09;4235734;28;20059;-68
2024/02/14 03:48:05;;;;;;;12.25;9.90;;;;;;;6.52;63.97;94435.25;4216738;28;20499;-69
2024/02/14 03:50:08;;;;;;;11.82;9.85;;;;;;;6.55;63.19;94437.56;4240505;27;20072;-67
2024/02/14 03:52:10;;;;;;;10.75;9.50;;;;;;;6.57;63.16;94439.03;4239922;27;20043;-69
2024/02/14 03:54:12;;;;;;;10.88;9.77;;;;;;;6.51;63.11;94436.19;4243078;27;20133;-68
2024/02/14 03:56:14;;;;;;;12.27;10.15;;;;;;;6.49;63.54;94441.53;4241270;27;20143;-67
2024/02/14 03:58:22;;;;;;;14.18;10.25;;;;;;;6.55;63.47;94432.34;4242939;27;20047;-69
2024/02/14 04:00:24;;;;;;;15.68;11.35;;;;;;;6.49;63.49;94438.13;4241820;27;20081;-66
2024/02/14 04:02:28;;;;;;;11.40;9.93;;;;;;;6.51;63.44;94434.41;4239907;27;20158;-67
2024/02/14 04:04:30;;;;;;;12.07;9.90;;;;;;;6.49;63.66;94433.72;4243295;27;20045;-68
2024/02/14 04:06:33;;;;;;;11.25;9.88;;;;;;;6.43;63.64;94441.28;4240125;27;20043;-69
2024/02/14 04:08:35;;;;;;;10.82;9.75;;;;;;;6.43;63.37;94444.72;4244906;27;20059;-68
2024/02/14 04:10:37;;;;;;;11.32;9.77;;;;;;;6.46;63.74;94444.41;4243201;27;20051;-67
2024/02/14 04:12:40;;;;;;;11.35;10.20;;;;;;;6.48;63.50;94439.91;4244166;27;20039;-68
2024/02/14 04:14:41;;;;;;;11.95;10.70;;;;;;;6.51;63.62;94438.78;4238781;27;20532;-65
2024/02/14 04:16:43;;;;;;;12.13;10.60;;;;;;;6.57;63.37;94444.25;4243188;27;20055;-67
2024/02/14 04:18:45;;;;;;;11.98;10.32;;;;;;;6.67;62.93;94446.03;4244574;27;20376;-67
2024/02/14 04:20:48;;;;;;;11.48;10.27;;;;;;;6.65;63.21;94453.16;4224671;28;20109;-68
2024/02/14 04:22:50;;;;;;;12.13;10.82;;;;;;;6.45;63.00;94455.78;4242629;27;20039;-68
2024/02/14 04:24:52;;;;;;;11.98;10.68;;;;;;;6.43;63.27;94455.13;4238477;27;20475;-69
2024/02/14 04:26:56;;;;;;;12.57;11.27;;;;;;;6.52;63.52;94458.66;4235617;27;20052;-70
2024/02/14 04:28:58;;;;;;;12.48;11.15;;;;;;;6.45;63.03;94460.97;4239745;27;20054;-67
2024/02/14 04:31:00;;;;;;;12.50;11.25;;;;;;;6.38;63.56;94457.31;4240465;27;20097;-69
2024/02/14 04:33:02;;;;;;;12.80;11.27;;;;;;;6.43;63.68;94464.69;4215378;27;20054;-69
2024/02/14 04:35:05;;;;;;;13.30;11.90;;;;;;;6.34;63.96;94461.13;4238527;27;20047;-68
2024/02/14 04:37:10;;;;;;;13.68;11.68;;;;;;;6.43;64.14;94470.75;4220438;28;20048;-68
2024/02/14 04:39:12;;;;;;;14.57;12.25;;;;;;;6.43;63.88;94459.47;4243409;27;20047;-68
2024/02/14 04:41:14;;;;;;;13.52;12.13;;;;;;;6.46;64.07;94464.44;4226176;28;20047;-67
2024/02/14 04:43:16;;;;;;;14.05;12.57;;;;;;;6.21;64.78;94466.63;4225484;28;20067;-68
2024/02/14 04:45:19;;;;;;;13.60;11.68;;;;;;;6.25;64.70;94473.19;4243463;27;20044;-68
2024/02/14 04:47:21;;;;;;;14.10;12.68;;;;;;;6.18;64.93;94482.53;4237132;27;20081;-68
2024/02/14 04:49:23;;;;;;;14.82;13.30;;;;;;;6.21;64.91;94476.22;4246090;27;20087;-65
2024/02/14 04:51:26;;;;;;;16.52;12.63;;;;;;;6.22;64.80;94476.09;4235162;27;20078;-70
2024/02/14 04:53:28;;;;;;;15.30;13.65;;;;;;;6.20;65.14;94479.78;4240797;27;20100;-66
2024/02/14 04:55:29;;;;;;;14.45;12.85;;;;;;;6.14;65.23;94481.97;4232331;27;20446;-68
2024/02/14 04:57:35;;;;;;;14.13;12.68;;;;;;;6.10;65.06;94487.59;4220738;28;20051;-70
2024/02/14 04:59:37;;;;;;;13.77;12.38;;;;;;;6.18;65.37;94489.50;4231039;27;20056;-66
2024/02/14 05:01:39;;;;;;;14.48;12.95;;;;;;;6.07;65.05;94498.28;4242430;27;20051;-67
2024/02/14 05:03:41;;;;;;;14.95;13.43;;;;;;;6.14;65.06;94491.56;4242234;27;20142;-70
2024/02/14 05:05:43;;;;;;;15.32;13.65;;;;;;;6.22;65.10;94496.91;4243784;27;20115;-68
2024/02/14 05:07:46;;;;;;;14.85;13.13;;;;;;;6.04;65.28;94496.75;4243866;27;20043;-68
2024/02/14 05:09:51;;;;;;;14.65;13.07;;;;;;;5.97;65.75;94503.44;4242919;27;20108;-68
2024/02/14 05:11:53;;;;;;;14.38;12.98;;;;;;;6.04;64.89;94512.34;4242942;27;20043;-70
2024/02/14 05:13:55;;;;;;;15.68;14.00;;;;;;;6.03;64.96;94510.72;4236624;27;20478;-67
2024/02/14 05:15:57;;;;;;;15.00;13.50;;;;;;;6.02;64.85;94501.25;4242165;27;20084;-68
2024/02/14 05:17:59;;;;;;;15.00;13.50;;;;;;;5.95;65.30;94513.97;4235016;27;20052;-69
2024/02/14 05:20:01;;;;;;;15.13;13.45;;;;;;;6.00;65.48;94524.00;4235367;27;20414;-68
2024/02/14 05:22:03;;;;;;;15.77;13.73;;;;;;;5.97;64.94;94513.84;4241875;27;20050;-67
2024/02/14 05:24:06;;;;;;;15.95;14.25;;;;;;;6.03;65.29;94521.13;4240207;27;20087;-68
2024/02/14 05:26:08;;;;;;;16.70;14.00;;;;;;;5.99;65.09;94524.13;4241833;27;20078;-68
2024/02/14 05:28:13;;;;;;;15.45;13.95;;;;;;;6.03;65.37;94526.31;4243654;27;20047;-69
2024/02/14 05:30:15;;;;;;;14.73;13.23;;;;;;;5.99;64.73;94535.34;4238474;27;20055;-70
2024/02/14 05:32:17;;;;;;;17.38;14.98;;;;;;;5.93;65.08;94531.47;4242184;27;20047;-67
2024/02/14 05:34:18;;;;;;;16.15;13.88;;;;;;;5.94;65.20;94538.34;4243314;27;20572;-69
2024/02/14 05:36:23;;;;;;;18.48;14.90;;;;;;;5.90;65.06;94538.72;4242913;27;20085;-68
2024/02/14 05:38:24;;;;;;;16.02;14.10;;;;;;;5.88;65.29;94544.06;4243599;27;20051;-68
2024/02/14 05:40:26;;;;;;;16.02;14.40;;;;;;;5.95;64.85;94544.38;4241718;27;20047;-68
2024/02/14 05:42:28;;;;;;;16.48;14.75;;;;;;;5.98;64.44;94546.72;4236849;27;20274;-68
2024/02/14 05:44:30;;;;;;;18.55;13.73;;;;;;;5.99;64.85;94550.13;4220528;28;20435;-68
2024/02/14 05:46:32;;;;;;;15.60;13.48;;;;;;;6.04;64.07;94548.75;4232408;27;20047;-69
2024/02/14 05:48:35;;;;;;;15.18;13.68;;;;;;;6.05;64.34;94555.63;4241351;27;20556;-68
2024/02/14 05:50:39;;;;;;;15.68;14.13;;;;;;;6.11;63.90;94556.88;4237097;27;20055;-69
2024/02/14 05:52:41;;;;;;;15.25;13.70;;;;;;;6.15;64.06;94559.06;4198103;28;20190;-69
2024/02/14 05:54:44;;;;;;;15.10;13.50;;;;;;;6.13;63.98;94562.72;4242495;27;20171;-70
2024/02/14 05:56:46;;;;;;;15.05;13.48;;;;;;;6.07;63.45;94564.09;4240560;27;20461;-69
2024/02/14 05:58:49;;;;;;;13.95;12.43;;;;;;;5.78;63.96;94571.81;4235763;27;20154;-69
2024/02/14 06:00:51;;;;;;;16.02;13.85;;;;;;;5.81;64.15;94578.50;4241922;27;20047;-68
2024/02/14 06:02:53;;;;;;;14.10;12.10;;;;;;;5.79;64.69;94577.84;4242665;27;20406;-69
2024/02/14 06:04:55;;;;;;;15.45;13.80;;;;;;;5.85;64.58;94585.09;4239777;27;20051;-69
2024/02/14 06:06:57;;;;;;;15.10;13.05;;;;;;;5.98;64.03;94583.13;4241404;27;20116;-70
2024/02/14 06:08:59;;;;;;;16.10;12.77;;;;;;;5.97;63.70;94584.06;4241471;27;20047;-69
2024/02/14 06:11:01;;;;;;;13.90;12.40;;;;;;;6.02;63.87;94592.28;4235850;27;20432;-70
2024/02/14 06:13:03;;;;;;;14.60;13.10;;;;;;;6.08;63.03;94585.72;4237313;27;20525;-68
2024/02/14 06:15:05;;;;;;;14.27;12.85;;;;;;;6.09;63.03;94588.19;4237711;27;20518;-67
2024/02/14 06:17:08;;;;;;;13.82;12.18;;;;;;;6.05;63.13;94593.81;4214485;28;20553;-67
2024/02/14 06:19:10;;;;;;;13.88;12.48;;;;;;;6.11;62.90;94593.28;4242367;27;20117;-68
2024/02/14 06:21:12;;;;;;;17.73;13.05;;;;;;;6.14;62.75;94606.81;4214817;28;20044;-68
2024/02/14 06:23:14;;;;;;;13.98;12.60;;;;;;;6.14;62.61;94601.59;4238002;27;20126;-69
2024/02/14 06:25:16;;;;;;;14.38;12.88;;;;;;;6.22;62.60;94600.94;4240624;27;20092;-70
2024/02/14 06:27:18;;;;;;;14.30;12.70;;;;;;;6.11;62.59;94596.69;4243437;27;20058;-68
2024/02/14 06:29:21;;;;;;;14.32;12.40;;;;;;;6.13;62.31;94605.19;4242314;27;20057;-71
2024/02/14 06:31:23;;;;;;;16.55;12.82;;;;;;;6.06;62.07;94611.84;4243381;27;20471;-68
2024/02/14 06:33:25;;;;;;;13.65;12.05;;;;;;;6.14;62.41;94616.41;4242513;27;20061;-70
2024/02/14 06:35:28;;;;;;;17.00;12.32;;;;;;;6.00;62.52;94624.56;4241487;27;20043;-69
2024/02/14 06:37:31;;;;;;;13.50;11.45;;;;;;;5.93;62.58;94619.88;4238646;27;20044;-70
2024/02/14 06:39:45;;;;;;;12.52;11.18;;;;;;;6.05;62.00;94620.63;4239162;27;20477;-68
2024/02/14 06:41:47;;;;;;;13.48;12.05;;;;;;;6.09;62.45;94611.59;4224207;28;20047;-67
2024/02/14 06:43:49;;;;;;;12.75;11.45;;;;;;;6.05;62.49;94622.41;4237675;27;20660;-69
2024/02/14 06:45:51;;;;;;;13.45;11.50;;;;;;;6.12;61.82;94620.91;4233440;28;20524;-70
2024/02/14 06:47:54;;;;;;;15.52;11.65;;;;;;;6.01;62.11;94614.03;4223947;28;20179;-71
2024/02/14 06:49:56;;;;;;;12.32;11.02;;;;;;;5.95;62.33;94618.00;4241405;28;20157;-68
2024/02/14 06:51:58;;;;;;;13.13;11.70;;;;;;;5.99;62.49;94626.34;4240760;28;20043;-68
2024/02/14 06:54:01;;;;;;;11.18;10.07;;;;;;;6.06;61.34;94635.25;4242196;28;20100;-66
2024/02/14 06:56:04;;;;;;;13.25;10.18;;;;;;;5.93;61.82;94634.66;4237012;28;20531;-69
2024/02/14 06:58:06;;;;;;;12.07;10.85;;;;;;;5.99;61.94;94635.94;4242515;28;20055;-69
2024/02/14 07:00:08;;;;;;;14.15;11.35;;;;;;;5.99;62.38;94630.75;4240556;28;20086;-69
2024/02/14 07:02:11;;;;;;;13.35;11.20;;;;;;;6.10;62.19;94631.44;4237680;28;20502;-70
2024/02/14 07:04:15;;;;;;;14.05;11.23;;;;;;;5.99;61.53;94639.34;4237415;28;20495;-69
2024/02/14 07:06:17;;;;;;;11.73;10.52;;;;;;;6.01;61.48;94637.44;4230458;28;20036;-67
2024/02/14 07:08:20;;;;;;;11.20;10.10;;;;;;;5.89;62.04;94647.13;4234106;28;20150;-71
2024/02/14 07:10:22;;;;;;;11.13;9.80;;;;;;;5.96;61.81;94650.03;4210507;28;20056;-68
2024/02/14 07:12:24;;;;;;;12.43;11.13;;;;;;;5.99;61.70;94660.16;4241394;28;20055;-69
2024/02/14 07:14:25;;;;;;;14.10;10.68;;;;;;;5.84;61.62;94658.84;4243180;28;20059;-70
2024/02/14 07:16:27;;;;;;;14.07;10.90;;;;;;;5.92;61.53;94657.22;4242484;28;20131;-68
2024/02/14 07:18:30;;;;;;;11.70;10.50;;;;;;;5.86;61.65;94668.16;4241774;28;20043;-70
2024/02/14 07:20:32;;;;;;;12.25;10.63;;;;;;;5.81;61.65;94651.28;4238188;28;20192;-70
2024/02/14 07:22:34;;;;;;;15.70;11.20;;;;;;;5.63;62.13;94662.31;4226682;28;20051;-68
2024/02/14 07:24:36;;;;;;;12.70;11.40;;;;;;;5.71;62.26;94662.47;4236504;27;20065;-70
2024/02/14 07:26:40;;;;;;;13.13;9.52;;;;;;;5.73;62.02;94670.16;4244432;27;20047;-71
2024/02/14 07:28:42;;;;;;;10.98;9.80;;;;;;;5.62;61.99;94667.66;4245915;27;20104;-70
2024/02/14 07:30:44;;;;;;;12.38;9.60;;;;;;;5.60;61.90;94667.78;4245045;27;20150;-71
2024/02/14 07:32:46;;;;;;;11.32;9.70;;;;;;;5.68;62.30;94662.75;4244498;27;20094;-69
2024/02/14 07:34:49;;;;;;;10.55;9.45;;;;;;;5.55;62.37;94667.34;4244486;27;20051;-68
2024/02/14 07:36:50;;;;;;;12.35;10.40;;;;;;;5.30;63.44;94669.38;4241707;27;20050;-67
2024/02/14 07:38:54;;;;;;;12.98;10.38;;;;;;;5.46;63.25;94670.69;4243810;27;20046;-70
2024/02/14 07:40:56;;;;;;;12.52;9.95;;;;;;;5.61;62.28;94666.81;4226980;28;20306;-68
2024/02/14 07:42:58;;;;;;;11.73;9.88;;;;;;;5.67;62.79;94666.28;4246176;27;20477;-69
2024/02/14 07:45:00;;;;;;;15.05;10.43;;;;;;;5.67;62.14;94681.88;4245080;27;20088;-70
2024/02/14 07:47:02;;;;;;;13.45;11.50;;;;;;;5.26;63.32;94668.00;4243214;27;20497;-71
2024/02/14 07:49:08;;;;;;;13.40;10.50;;;;;;;5.42;63.03;94674.50;4243484;27;20051;-70
2024/02/14 07:51:12;;;;;;;14.77;10.88;;;;;;;5.38;63.05;94671.34;4245753;27;20043;-67
2024/02/14 07:53:14;;;;;;;11.90;10.43;;;;;;;5.33;63.23;94678.69;4233696;27;20154;-68
2024/02/14 07:55:16;;;;;;;11.40;10.02;;;;;;;5.39;63.25;94672.16;4232479;27;20064;-68
2024/02/14 07:57:18;;;;;;;11.02;9.52;;;;;;;5.40;62.47;94674.66;4241480;27;20051;-70
2024/02/14 07:59:20;;;;;;;15.13;10.18;;;;;;;5.51;62.83;94686.75;4237290;27;20046;-69
2024/02/14 08:01:22;;;;;;;12.57;10.07;;;;;;;5.11;64.29;94677.88;4245333;27;20121;-69
2024/02/14 08:03:24;;;;;;;11.85;9.63;;;;;;;5.22;64.44;94695.16;4245404;27;20055;-68
2024/02/14 08:05:26;;;;;;;11.50;9.88;;;;;;;5.28;63.69;94688.66;4234194;27;20398;-68
2024/02/14 08:07:28;;;;;;;11.35;10.10;;;;;;;5.38;63.85;94686.09;4225675;28;20044;-69
2024/02/14 08:09:30;;;;;;;11.98;9.88;;;;;;;5.43;63.06;94686.56;4241148;27;20046;-70
2024/02/14 08:11:32;;;;;;;12.48;10.20;;;;;;;5.42;63.53;94690.09;4238414;27;20047;-67
2024/02/14 08:13:34;;;;;;;10.75;9.75;;;;;;;5.54;63.35;94691.66;4243742;27;20471;-69
2024/02/14 08:15:36;;;;;;;12.02;10.70;;;;;;;5.60;63.11;94690.34;4241353;27;20054;-70
2024/02/14 08:17:41;;;;;;;12.00;9.80;;;;;;;5.63;62.97;94685.69;4244951;27;20051;-68
2024/02/14 08:19:50;;;;;;;10.90;9.48;;;;;;;5.72;62.18;94691.88;4227158;27;20059;-67
2024/02/14 08:21:53;;;;;;;12.20;9.35;;;;;;;5.79;61.81;94692.22;4240734;27;20122;-69
2024/02/14 08:23:55;;;;;;;11.95;9.13;;;;;;;5.80;61.71;94701.66;4243395;27;20112;-67
2024/02/14 08:25:57;;;;;;;12.20;10.20;;;;;;;5.70;62.61;94704.19;4244295;27;20512;-71
2024/02/14 08:27:59;;;;;;;10.63;9.52;;;;;;;5.81;62.32;94704.13;4238855;27;20526;-70
2024/02/14 08:30:01;;;;;;;11.02;9.80;;;;;;;5.59;62.34;94707.69;4238212;27;20043;-70
2024/02/14 08:32:04;;;;;;;11.52;9.88;;;;;;;5.63;62.14;94716.88;4245121;27;20146;-70
2024/02/14 08:34:07;;;;;;;10.80;7.90;;;;;;;5.56;62.43;94707.97;4233082;27;20070;-70
2024/02/14 08:36:09;;;;;;;11.48;9.98;;;;;;;5.53;62.76;94736.81;4237656;27;20032;-69
2024/02/14 08:38:11;;;;;;;12.02;9.25;;;;;;;5.43;61.84;94717.72;4223430;28;20051;-68
2024/02/14 08:40:13;;;;;;;12.73;9.50;;;;;;;5.43;61.87;94718.56;4234634;27;20047;-69
2024/02/14 08:42:15;;;;;;;10.57;9.20;;;;;;;5.44;61.66;94730.59;4243688;27;20055;-68
2024/02/14 08:44:18;;;;;;;13.40;9.10;;;;;;;5.48;61.44;94723.34;4244559;27;20051;-68
2024/02/14 08:46:19;;;;;;;9.77;8.27;;;;;;;5.44;61.91;94716.78;4241214;27;20535;-69
2024/02/14 08:48:22;;;;;;;11.10;8.68;;;;;;;5.45;61.50;94729.63;4235494;27;20105;-70
2024/02/14 08:50:24;;;;;;;12.37;9.70;;;;;;;5.46;62.17;94720.91;4242000;27;20496;-69
2024/02/14 08:52:26;;;;;;;10.82;9.65;;;;;;;5.49;62.19;94733.63;4232771;27;20290;-68
2024/02/14 08:54:28;;;;;;;11.23;8.82;;;;;;;5.53;61.51;94732.44;4243148;27;20105;-66
2024/02/14 08:56:33;;;;;;;11.93;9.00;;;;;;;5.56;61.83;94731.34;4230426;27;20086;-68
2024/02/14 08:58:35;;;;;;;10.60;8.40;;;;;;;5.76;60.79;94740.06;4243100;27;20123;-70
2024/02/14 09:00:38;;;;;;;8.98;8.07;;;;;;;5.68;60.52;94734.72;4244842;27;20093;-69
2024/02/14 09:02:41;;;;;;;13.02;9.38;;;;;;;5.62;60.79;94733.44;4235037;27;20047;-70
2024/02/14 09:04:44;;;;;;;13.98;8.60;;;;;;;5.71;60.97;94745.66;4240996;27;20050;-68
2024/02/14 09:06:46;;;;;;;11.38;8.52;;;;;;;5.53;61.24;94742.00;4237556;27;20126;-70
2024/02/14 09:08:50;;;;;;;10.02;8.93;;;;;;;5.57;60.76;94743.41;4240094;27;20092;-69
2024/02/14 09:10:52;;;;;;;8.60;7.72;;;;;;;5.49;61.01;94753.59;4225320;27;20075;-69
2024/02/14 09:12:55;;;;;;;10.80;9.00;;;;;;;5.54;61.59;94752.25;4233231;27;20039;-68
2024/02/14 09:14:57;;;;;;;10.30;9.20;;;;;;;5.34;62.21;94764.28;4239972;27;20070;-68
2024/02/14 09:16:59;;;;;;;12.35;9.68;;;;;;;5.36;62.06;94758.16;4241142;27;20051;-69
2024/02/14 09:19:05;;;;;;;11.32;8.95;;;;;;;5.33;63.13;94765.25;4242991;27;20075;-71
2024/02/14 09:21:07;;;;;;;10.48;9.48;;;;;;;5.29;62.79;94757.81;4235230;27;20090;-69
2024/02/14 09:23:09;;;;;;;10.77;9.60;;;;;;;5.38;63.43;94751.91;4215221;28;20059;-70
2024/02/14 09:25:11;;;;;;;9.73;8.52;;;;;;;5.39;62.47;94769.13;4228098;27;20130;-67
2024/02/14 09:27:13;;;;;;;10.23;9.10;;;;;;;5.50;62.75;94755.25;4239831;27;20043;-72
2024/02/14 09:29:16;;;;;;;12.68;9.65;;;;;;;5.48;61.94;94759.72;4241941;27;20078;-68
2024/02/14 09:31:19;;;;;;;10.85;9.07;;;;;;;5.49;61.74;94764.81;4243236;27;20045;-70
2024/02/14 09:33:21;;;;;;;13.43;9.70;;;;;;;5.52;62.16;94766.34;4244007;27;20097;-70
2024/02/14 09:35:24;;;;;;;11.05;9.32;;;;;;;5.40;62.13;94768.19;4222329;28;20101;-68